sensor_id;sensor_type;location;lat;lon;timestamp;temperature;humidity
37289;DHT22;23174;49.462;11.000;2023-08-21T00:00:46;25.40;99.90
37289;DHT22;23174;49.462;11.000;2023-08-21T00:02:47;25.40;99.90
37289;DHT22;23174;49.462;11.000;2023-08-21T00:04:47;25.40;99.90
37289;DHT22;23174;49.462;11.000;2023-08-21T00:06:48;25.40;99.90
37289;DHT22;23174;49.462;11.000;2023-08-21T00:08:48;25.40;99.90
37289;DHT22;23174;49.462;11.000;2023-08-21T00:10:49;25.30;99.90
37289;DHT22;23174;49.462;11.000;2023-08-21T00:12:49;25.40;99.90
37289;DHT22;23174;49.462;11.000;2023-08-21T00:14:50;25.30;99.90
37289;DHT22;23174;49.462;11.000;2023-08-21T00:16:50;25.40;99.90
37289;DHT22;23174;49.462;11.000;2023-08-21T00:18:50;25.40;99.90
37289;DHT22;23174;49.462;11.000;2023-08-21T00:20:51;25.30;99.90
37289;DHT22;23174;49.462;11.000;2023-08-21T00:22:52;25.30;99.90
37289;DHT22;23174;49.462;11.000;2023-08-21T00:24:52;25.30;99.90
37289;DHT22;23174;49.462;11.000;2023-08-21T00:26:53;25.30;99.90
37289;DHT22;23174;49.462;11.000;2023-08-21T00:28:53;25.40;99.90
37289;DHT22;23174;49.462;11.000;2023-08-21T00:31:00;25.40;99.90
37289;DHT22;23174;49.462;11.000;2023-08-21T00:33:01;25.40;99.90
37289;DHT22;23174;49.462;11.000;2023-08-21T00:35:01;25.30;99.90
37289;DHT22;23174;49.462;11.000;2023-08-21T00:37:02;25.30;99.90
37289;DHT22;23174;49.462;11.000;2023-08-21T00:39:02;25.30;99.90
37289;DHT22;23174;49.462;11.000;2023-08-21T00:41:03;25.20;99.90
37289;DHT22;23174;49.462;11.000;2023-08-21T00:43:04;25.20;99.90
37289;DHT22;23174;49.462;11.000;2023-08-21T00:45:05;25.10;99.90
37289;DHT22;23174;49.462;11.000;2023-08-21T00:47:08;25.20;99.90
37289;DHT22;23174;49.462;11.000;2023-08-21T00:49:09;25.20;99.90
37289;DHT22;23174;49.462;11.000;2023-08-21T00:51:12;25.20;99.90
37289;DHT22;23174;49.462;11.000;2023-08-21T00:53:14;25.10;99.90
37289;DHT22;23174;49.462;11.000;2023-08-21T00:55:15;25.10;99.90
37289;DHT22;23174;49.462;11.000;2023-08-21T00:57:17;25.10;99.90
37289;DHT22;23174;49.462;11.000;2023-08-21T00:59:19;25.00;99.90
37289;DHT22;23174;49.462;11.000;2023-08-21T01:01:23;25.20;99.90
37289;DHT22;23174;49.462;11.000;2023-08-21T01:03:24;25.10;99.90
37289;DHT22;23174;49.462;11.000;2023-08-21T01:05:25;25.00;99.90
37289;DHT22;23174;49.462;11.000;2023-08-21T01:07:26;25.00;99.90
37289;DHT22;23174;49.462;11.000;2023-08-21T01:12:06;24.90;99.90
37289;DHT22;23174;49.462;11.000;2023-08-21T01:14:28;24.60;99.90
37289;DHT22;23174;49.462;11.000;2023-08-21T01:16:31;24.50;99.90
37289;DHT22;23174;49.462;11.000;2023-08-21T01:18:33;24.70;99.90
37289;DHT22;23174;49.462;11.000;2023-08-21T01:20:35;24.70;99.90
37289;DHT22;23174;49.462;11.000;2023-08-21T01:22:37;24.60;99.90
37289;DHT22;23174;49.462;11.000;2023-08-21T01:24:38;24.50;99.90
37289;DHT22;23174;49.462;11.000;2023-08-21T01:26:39;24.60;99.90
37289;DHT22;23174;49.462;11.000;2023-08-21T01:28:39;24.70;99.90
37289;DHT22;23174;49.462;11.000;2023-08-21T01:30:40;24.70;99.90
37289;DHT22;23174;49.462;11.000;2023-08-21T01:33:05;24.80;99.90
37289;DHT22;23174;49.462;11.000;2023-08-21T01:35:07;24.80;99.90
37289;DHT22;23174;49.462;11.000;2023-08-21T01:37:09;24.80;99.90
37289;DHT22;23174;49.462;11.000;2023-08-21T01:39:10;24.80;99.90
37289;DHT22;23174;49.462;11.000;2023-08-21T01:41:11;24.80;99.90
37289;DHT22;23174;49.462;11.000;2023-08-21T01:43:11;24.80;99.90
37289;DHT22;23174;49.462;11.000;2023-08-21T01:45:12;24.80;99.90
37289;DHT22;23174;49.462;11.000;2023-08-21T01:47:12;24.80;99.90
37289;DHT22;23174;49.462;11.000;2023-08-21T01:49:13;24.80;99.90
37289;DHT22;23174;49.462;11.000;2023-08-21T01:51:13;24.80;99.90
37289;DHT22;23174;49.462;11.000;2023-08-21T01:53:14;24.70;99.90
37289;DHT22;23174;49.462;11.000;2023-08-21T01:55:14;24.80;99.90
37289;DHT22;23174;49.462;11.000;2023-08-21T01:57:15;24.80;99.90
37289;DHT22;23174;49.462;11.000;2023-08-21T01:59:16;24.80;99.90
37289;DHT22;23174;49.462;11.000;2023-08-21T02:01:17;24.80;99.90
37289;DHT22;23174;49.462;11.000;2023-08-21T02:03:19;24.70;99.90
37289;DHT22;23174;49.462;11.000;2023-08-21T02:05:19;24.70;99.90
37289;DHT22;23174;49.462;11.000;2023-08-21T02:07:20;24.60;99.90
37289;DHT22;23174;49.462;11.000;2023-08-21T02:09:20;24.60;99.90
37289;DHT22;23174;49.462;11.000;2023-08-21T02:11:20;24.60;99.90
37289;DHT22;23174;49.462;11.000;2023-08-21T02:13:21;24.70;99.90
37289;DHT22;23174;49.462;11.000;2023-08-21T02:15:21;24.70;99.90
37289;DHT22;23174;49.462;11.000;2023-08-21T02:17:25;24.60;99.90
37289;DHT22;23174;49.462;11.000;2023-08-21T02:19:26;24.60;99.90
37289;DHT22;23174;49.462;11.000;2023-08-21T02:21:26;24.60;99.90
37289;DHT22;23174;49.462;11.000;2023-08-21T02:23:27;24.80;99.90
37289;DHT22;23174;49.462;11.000;2023-08-21T02:25:29;24.80;99.90
37289;DHT22;23174;49.462;11.000;2023-08-21T02:27:30;24.60;99.90
37289;DHT22;23174;49.462;11.000;2023-08-21T02:29:31;24.60;99.90
37289;DHT22;23174;49.462;11.000;2023-08-21T02:31:31;24.60;99.90
37289;DHT22;23174;49.462;11.000;2023-08-21T02:33:32;24.60;99.90
37289;DHT22;23174;49.462;11.000;2023-08-21T02:35:32;24.60;99.90
37289;DHT22;23174;49.462;11.000;2023-08-21T02:37:32;24.60;99.90
37289;DHT22;23174;49.462;11.000;2023-08-21T02:39:33;24.60;99.90
37289;DHT22;23174;49.462;11.000;2023-08-21T02:41:34;24.60;99.90
37289;DHT22;23174;49.462;11.000;2023-08-21T02:43:34;24.60;99.90
37289;DHT22;23174;49.462;11.000;2023-08-21T02:45:35;24.60;99.90
37289;DHT22;23174;49.462;11.000;2023-08-21T02:47:37;24.60;99.90
37289;DHT22;23174;49.462;11.000;2023-08-21T02:49:38;24.60;99.90
37289;DHT22;23174;49.462;11.000;2023-08-21T02:51:38;24.50;99.90
37289;DHT22;23174;49.462;11.000;2023-08-21T02:53:38;24.40;99.90
37289;DHT22;23174;49.462;11.000;2023-08-21T02:55:39;24.40;99.90
37289;DHT22;23174;49.462;11.000;2023-08-21T02:57:39;24.40;99.90
37289;DHT22;23174;49.462;11.000;2023-08-21T02:59:40;24.40;99.90
37289;DHT22;23174;49.462;11.000;2023-08-21T03:01:40;24.40;99.90
37289;DHT22;23174;49.462;11.000;2023-08-21T03:03:41;24.40;99.90
37289;DHT22;23174;49.462;11.000;2023-08-21T03:05:42;24.40;99.90
37289;DHT22;23174;49.462;11.000;2023-08-21T03:07:42;24.20;99.90
37289;DHT22;23174;49.462;11.000;2023-08-21T03:09:45;24.30;99.90
37289;DHT22;23174;49.462;11.000;2023-08-21T03:11:46;24.30;99.90
37289;DHT22;23174;49.462;11.000;2023-08-21T03:13:46;24.30;99.90
37289;DHT22;23174;49.462;11.000;2023-08-21T03:15:47;24.30;99.90
37289;DHT22;23174;49.462;11.000;2023-08-21T03:17:47;24.20;99.90
37289;DHT22;23174;49.462;11.000;2023-08-21T03:19:48;24.10;99.90
37289;DHT22;23174;49.462;11.000;2023-08-21T03:21:48;24.20;99.90
37289;DHT22;23174;49.462;11.000;2023-08-21T03:23:55;24.20;99.90
37289;DHT22;23174;49.462;11.000;2023-08-21T03:25:56;24.30;99.90
37289;DHT22;23174;49.462;11.000;2023-08-21T03:27:56;24.30;99.90
37289;DHT22;23174;49.462;11.000;2023-08-21T03:29:57;24.10;99.90
37289;DHT22;23174;49.462;11.000;2023-08-21T03:32:01;24.20;99.90
37289;DHT22;23174;49.462;11.000;2023-08-21T03:34:01;24.10;99.90
37289;DHT22;23174;49.462;11.000;2023-08-21T03:36:02;24.20;99.90
37289;DHT22;23174;49.462;11.000;2023-08-21T03:38:03;24.20;99.90
37289;DHT22;23174;49.462;11.000;2023-08-21T03:40:04;24.20;99.90
37289;DHT22;23174;49.462;11.000;2023-08-21T03:42:04;24.10;99.90
37289;DHT22;23174;49.462;11.000;2023-08-21T03:44:05;24.20;99.90
37289;DHT22;23174;49.462;11.000;2023-08-21T03:46:05;24.10;99.90
37289;DHT22;23174;49.462;11.000;2023-08-21T03:48:06;24.10;99.90
37289;DHT22;23174;49.462;11.000;2023-08-21T03:50:07;24.00;99.90
37289;DHT22;23174;49.462;11.000;2023-08-21T03:52:07;23.90;99.90
37289;DHT22;23174;49.462;11.000;2023-08-21T03:54:09;24.10;99.90
37289;DHT22;23174;49.462;11.000;2023-08-21T03:56:09;24.00;99.90
37289;DHT22;23174;49.462;11.000;2023-08-21T03:58:10;24.00;99.90
37289;DHT22;23174;49.462;11.000;2023-08-21T04:00:11;24.20;99.90
37289;DHT22;23174;49.462;11.000;2023-08-21T04:02:12;24.00;99.90
37289;DHT22;23174;49.462;11.000;2023-08-21T04:04:12;24.00;99.90
37289;DHT22;23174;49.462;11.000;2023-08-21T04:06:13;24.00;99.90
37289;DHT22;23174;49.462;11.000;2023-08-21T04:08:13;24.10;99.90
37289;DHT22;23174;49.462;11.000;2023-08-21T04:10:14;24.00;99.90
37289;DHT22;23174;49.462;11.000;2023-08-21T04:12:14;24.00;99.90
37289;DHT22;23174;49.462;11.000;2023-08-21T04:14:15;24.00;99.90
37289;DHT22;23174;49.462;11.000;2023-08-21T04:16:15;24.00;99.90
37289;DHT22;23174;49.462;11.000;2023-08-21T04:18:18;24.00;99.90
37289;DHT22;23174;49.462;11.000;2023-08-21T04:20:20;23.90;99.90
37289;DHT22;23174;49.462;11.000;2023-08-21T04:22:21;24.00;99.90
37289;DHT22;23174;49.462;11.000;2023-08-21T04:24:22;24.00;99.90
37289;DHT22;23174;49.462;11.000;2023-08-21T04:26:22;23.90;99.90
37289;DHT22;23174;49.462;11.000;2023-08-21T04:28:23;23.90;99.90
37289;DHT22;23174;49.462;11.000;2023-08-21T04:30:23;24.00;99.90
37289;DHT22;23174;49.462;11.000;2023-08-21T04:32:24;23.90;99.90
37289;DHT22;23174;49.462;11.000;2023-08-21T04:34:25;24.00;99.90
37289;DHT22;23174;49.462;11.000;2023-08-21T04:36:25;23.90;99.90
37289;DHT22;23174;49.462;11.000;2023-08-21T04:38:26;23.90;99.90
37289;DHT22;23174;49.462;11.000;2023-08-21T04:40:26;24.00;99.90
37289;DHT22;23174;49.462;11.000;2023-08-21T04:42:26;23.90;99.90
37289;DHT22;23174;49.462;11.000;2023-08-21T04:44:27;24.00;99.90
37289;DHT22;23174;49.462;11.000;2023-08-21T04:46:28;23.90;99.90
37289;DHT22;23174;49.462;11.000;2023-08-21T04:48:28;24.00;99.90
37289;DHT22;23174;49.462;11.000;2023-08-21T04:50:28;24.10;99.90
37289;DHT22;23174;49.462;11.000;2023-08-21T04:52:29;24.10;99.90
37289;DHT22;23174;49.462;11.000;2023-08-21T04:54:30;24.00;99.90
37289;DHT22;23174;49.462;11.000;2023-08-21T04:56:30;24.00;99.90
37289;DHT22;23174;49.462;11.000;2023-08-21T04:58:31;23.80;99.90
37289;DHT22;23174;49.462;11.000;2023-08-21T05:00:31;23.80;99.90
37289;DHT22;23174;49.462;11.000;2023-08-21T05:02:33;23.80;99.90
37289;DHT22;23174;49.462;11.000;2023-08-21T05:04:36;23.80;99.90
37289;DHT22;23174;49.462;11.000;2023-08-21T05:06:36;23.90;99.90
37289;DHT22;23174;49.462;11.000;2023-08-21T05:08:37;23.80;99.90
37289;DHT22;23174;49.462;11.000;2023-08-21T05:10:37;23.80;99.90
37289;DHT22;23174;49.462;11.000;2023-08-21T05:12:38;23.80;99.90
37289;DHT22;23174;49.462;11.000;2023-08-21T05:14:38;23.80;99.90
37289;DHT22;23174;49.462;11.000;2023-08-21T05:16:39;23.80;99.90
37289;DHT22;23174;49.462;11.000;2023-08-21T05:18:39;23.90;99.90
37289;DHT22;23174;49.462;11.000;2023-08-21T05:20:40;24.00;99.90
37289;DHT22;23174;49.462;11.000;2023-08-21T05:22:41;24.10;99.90
37289;DHT22;23174;49.462;11.000;2023-08-21T05:24:41;24.00;99.90
37289;DHT22;23174;49.462;11.000;2023-08-21T05:26:42;24.10;99.90
37289;DHT22;23174;49.462;11.000;2023-08-21T05:28:42;24.10;99.90
37289;DHT22;23174;49.462;11.000;2023-08-21T05:30:43;24.00;99.90
37289;DHT22;23174;49.462;11.000;2023-08-21T05:32:46;24.00;99.90
37289;DHT22;23174;49.462;11.000;2023-08-21T05:34:47;24.00;99.90
37289;DHT22;23174;49.462;11.000;2023-08-21T05:36:47;24.00;99.90
37289;DHT22;23174;49.462;11.000;2023-08-21T05:38:48;23.90;99.90
37289;DHT22;23174;49.462;11.000;2023-08-21T05:40:51;23.90;99.90
37289;DHT22;23174;49.462;11.000;2023-08-21T05:42:51;24.00;99.90
37289;DHT22;23174;49.462;11.000;2023-08-21T05:44:52;23.90;99.90
37289;DHT22;23174;49.462;11.000;2023-08-21T05:46:53;23.90;99.90
37289;DHT22;23174;49.462;11.000;2023-08-21T05:48:54;24.00;99.90
37289;DHT22;23174;49.462;11.000;2023-08-21T05:50:54;24.00;99.90
37289;DHT22;23174;49.462;11.000;2023-08-21T05:52:54;24.20;99.90
37289;DHT22;23174;49.462;11.000;2023-08-21T05:54:55;24.20;99.90
37289;DHT22;23174;49.462;11.000;2023-08-21T05:56:55;24.20;99.90
37289;DHT22;23174;49.462;11.000;2023-08-21T05:58:56;24.10;99.90
37289;DHT22;23174;49.462;11.000;2023-08-21T06:00:57;24.20;99.90
37289;DHT22;23174;49.462;11.000;2023-08-21T06:02:57;24.20;99.90
37289;DHT22;23174;49.462;11.000;2023-08-21T06:04:58;24.30;99.90
37289;DHT22;23174;49.462;11.000;2023-08-21T06:06:58;24.30;99.90
37289;DHT22;23174;49.462;11.000;2023-08-21T06:08:59;24.20;99.90
37289;DHT22;23174;49.462;11.000;2023-08-21T06:10:59;24.10;99.90
37289;DHT22;23174;49.462;11.000;2023-08-21T06:13:00;24.10;99.90
37289;DHT22;23174;49.462;11.000;2023-08-21T06:15:00;24.20;99.90
37289;DHT22;23174;49.462;11.000;2023-08-21T06:17:02;24.40;99.90
37289;DHT22;23174;49.462;11.000;2023-08-21T06:19:03;24.40;99.90
37289;DHT22;23174;49.462;11.000;2023-08-21T06:21:03;24.40;99.90
37289;DHT22;23174;49.462;11.000;2023-08-21T06:23:04;24.40;99.90
37289;DHT22;23174;49.462;11.000;2023-08-21T06:25:05;24.40;99.90
37289;DHT22;23174;49.462;11.000;2023-08-21T06:27:05;24.40;99.90
37289;DHT22;23174;49.462;11.000;2023-08-21T06:29:06;24.40;99.90
37289;DHT22;23174;49.462;11.000;2023-08-21T06:31:08;24.40;99.90
37289;DHT22;23174;49.462;11.000;2023-08-21T06:33:09;24.40;99.90
37289;DHT22;23174;49.462;11.000;2023-08-21T06:35:09;24.50;99.90
37289;DHT22;23174;49.462;11.000;2023-08-21T06:37:10;24.50;99.90
37289;DHT22;23174;49.462;11.000;2023-08-21T06:39:10;24.50;99.90
37289;DHT22;23174;49.462;11.000;2023-08-21T06:41:11;24.40;99.90
37289;DHT22;23174;49.462;11.000;2023-08-21T06:43:11;24.60;99.90
37289;DHT22;23174;49.462;11.000;2023-08-21T06:45:12;24.60;99.90
37289;DHT22;23174;49.462;11.000;2023-08-21T06:47:12;24.60;99.90
37289;DHT22;23174;49.462;11.000;2023-08-21T06:49:13;24.60;99.90
37289;DHT22;23174;49.462;11.000;2023-08-21T06:51:13;24.60;99.90
37289;DHT22;23174;49.462;11.000;2023-08-21T06:53:14;24.80;99.90
37289;DHT22;23174;49.462;11.000;2023-08-21T06:55:14;24.80;99.90
37289;DHT22;23174;49.462;11.000;2023-08-21T06:57:15;24.80;99.90
37289;DHT22;23174;49.462;11.000;2023-08-21T06:59:15;24.90;99.90
37289;DHT22;23174;49.462;11.000;2023-08-21T07:01:16;24.90;99.90
37289;DHT22;23174;49.462;11.000;2023-08-21T07:03:17;25.00;99.90
37289;DHT22;23174;49.462;11.000;2023-08-21T07:05:17;24.90;99.90
37289;DHT22;23174;49.462;11.000;2023-08-21T07:07:18;25.00;99.90
37289;DHT22;23174;49.462;11.000;2023-08-21T07:09:18;25.00;99.90
37289;DHT22;23174;49.462;11.000;2023-08-21T07:11:19;25.00;99.90
37289;DHT22;23174;49.462;11.000;2023-08-21T07:13:19;25.00;99.90
37289;DHT22;23174;49.462;11.000;2023-08-21T07:15:20;25.00;99.90
37289;DHT22;23174;49.462;11.000;2023-08-21T07:17:20;24.90;99.90
37289;DHT22;23174;49.462;11.000;2023-08-21T07:19:21;25.00;99.90
37289;DHT22;23174;49.462;11.000;2023-08-21T07:21:21;25.00;99.90
37289;DHT22;23174;49.462;11.000;2023-08-21T07:23:22;25.10;99.90
37289;DHT22;23174;49.462;11.000;2023-08-21T07:25:22;25.20;99.90
37289;DHT22;23174;49.462;11.000;2023-08-21T07:27:23;25.20;99.90
37289;DHT22;23174;49.462;11.000;2023-08-21T07:29:23;25.20;99.90
37289;DHT22;23174;49.462;11.000;2023-08-21T07:31:24;25.20;99.90
37289;DHT22;23174;49.462;11.000;2023-08-21T07:33:25;25.10;99.90
37289;DHT22;23174;49.462;11.000;2023-08-21T07:35:26;25.30;99.90
37289;DHT22;23174;49.462;11.000;2023-08-21T07:37:26;25.30;99.90
37289;DHT22;23174;49.462;11.000;2023-08-21T07:39:27;25.20;99.90
37289;DHT22;23174;49.462;11.000;2023-08-21T07:41:27;25.20;99.90
37289;DHT22;23174;49.462;11.000;2023-08-21T07:43:28;25.20;99.90
37289;DHT22;23174;49.462;11.000;2023-08-21T07:45:28;25.30;99.90
37289;DHT22;23174;49.462;11.000;2023-08-21T07:47:29;25.40;99.90
37289;DHT22;23174;49.462;11.000;2023-08-21T07:49:30;25.40;99.90
37289;DHT22;23174;49.462;11.000;2023-08-21T07:51:31;25.40;99.90
37289;DHT22;23174;49.462;11.000;2023-08-21T07:53:31;25.40;99.90
37289;DHT22;23174;49.462;11.000;2023-08-21T07:55:32;25.30;99.90
37289;DHT22;23174;49.462;11.000;2023-08-21T07:57:32;25.50;99.90
37289;DHT22;23174;49.462;11.000;2023-08-21T07:59:33;25.60;99.90
37289;DHT22;23174;49.462;11.000;2023-08-21T08:01:33;25.70;99.90
37289;DHT22;23174;49.462;11.000;2023-08-21T08:03:34;25.80;99.90
37289;DHT22;23174;49.462;11.000;2023-08-21T08:05:34;25.90;99.90
37289;DHT22;23174;49.462;11.000;2023-08-21T08:07:35;25.80;99.90
37289;DHT22;23174;49.462;11.000;2023-08-21T08:09:35;25.80;99.90
37289;DHT22;23174;49.462;11.000;2023-08-21T08:11:36;25.90;99.90
37289;DHT22;23174;49.462;11.000;2023-08-21T08:13:37;25.90;99.90
37289;DHT22;23174;49.462;11.000;2023-08-21T08:15:37;26.00;99.90
37289;DHT22;23174;49.462;11.000;2023-08-21T08:17:38;26.00;99.90
37289;DHT22;23174;49.462;11.000;2023-08-21T08:19:38;26.10;99.90
37289;DHT22;23174;49.462;11.000;2023-08-21T08:21:39;26.20;99.90
37289;DHT22;23174;49.462;11.000;2023-08-21T08:23:39;26.20;99.90
37289;DHT22;23174;49.462;11.000;2023-08-21T08:25:40;26.20;99.90
37289;DHT22;23174;49.462;11.000;2023-08-21T08:27:41;26.30;99.90
37289;DHT22;23174;49.462;11.000;2023-08-21T08:29:41;26.30;99.90
37289;DHT22;23174;49.462;11.000;2023-08-21T08:31:42;26.20;99.90
37289;DHT22;23174;49.462;11.000;2023-08-21T08:33:42;26.30;99.90
37289;DHT22;23174;49.462;11.000;2023-08-21T08:35:43;26.40;99.90
37289;DHT22;23174;49.462;11.000;2023-08-21T08:37:43;26.40;99.90
37289;DHT22;23174;49.462;11.000;2023-08-21T08:39:46;26.50;99.90
37289;DHT22;23174;49.462;11.000;2023-08-21T08:42:03;26.50;99.90
37289;DHT22;23174;49.462;11.000;2023-08-21T08:44:04;26.50;99.90
37289;DHT22;23174;49.462;11.000;2023-08-21T08:46:07;26.40;99.90
37289;DHT22;23174;49.462;11.000;2023-08-21T08:48:08;26.30;99.90
37289;DHT22;23174;49.462;11.000;2023-08-21T08:50:09;26.50;99.90
37289;DHT22;23174;49.462;11.000;2023-08-21T08:52:09;26.50;99.90
37289;DHT22;23174;49.462;11.000;2023-08-21T08:54:11;26.50;99.90
37289;DHT22;23174;49.462;11.000;2023-08-21T08:56:13;26.60;99.90
37289;DHT22;23174;49.462;11.000;2023-08-21T08:58:13;26.60;99.90
37289;DHT22;23174;49.462;11.000;2023-08-21T09:00:14;26.60;99.90
37289;DHT22;23174;49.462;11.000;2023-08-21T09:02:15;26.80;99.90
37289;DHT22;23174;49.462;11.000;2023-08-21T09:04:16;26.80;99.90
37289;DHT22;23174;49.462;11.000;2023-08-21T09:06:16;26.80;99.90
37289;DHT22;23174;49.462;11.000;2023-08-21T09:08:17;26.90;99.90
37289;DHT22;23174;49.462;11.000;2023-08-21T09:10:17;27.00;99.90
37289;DHT22;23174;49.462;11.000;2023-08-21T09:12:20;27.00;99.90
37289;DHT22;23174;49.462;11.000;2023-08-21T09:14:30;26.90;99.90
37289;DHT22;23174;49.462;11.000;2023-08-21T09:16:31;26.90;99.90
37289;DHT22;23174;49.462;11.000;2023-08-21T09:18:34;27.00;99.90
37289;DHT22;23174;49.462;11.000;2023-08-21T09:20:35;27.10;99.90
37289;DHT22;23174;49.462;11.000;2023-08-21T09:22:36;27.10;99.90
37289;DHT22;23174;49.462;11.000;2023-08-21T09:24:41;27.10;99.90
37289;DHT22;23174;49.462;11.000;2023-08-21T09:26:59;26.90;99.90
37289;DHT22;23174;49.462;11.000;2023-08-21T09:29:04;27.20;99.90
37289;DHT22;23174;49.462;11.000;2023-08-21T09:31:05;27.40;99.90
37289;DHT22;23174;49.462;11.000;2023-08-21T09:33:06;27.40;99.90
37289;DHT22;23174;49.462;11.000;2023-08-21T09:35:13;27.40;99.90
37289;DHT22;23174;49.462;11.000;2023-08-21T09:37:16;27.40;99.90
37289;DHT22;23174;49.462;11.000;2023-08-21T09:39:17;27.50;99.90
37289;DHT22;23174;49.462;11.000;2023-08-21T09:41:22;27.60;99.90
37289;DHT22;23174;49.462;11.000;2023-08-21T09:43:23;27.50;99.90
37289;DHT22;23174;49.462;11.000;2023-08-21T09:45:25;27.60;99.90
37289;DHT22;23174;49.462;11.000;2023-08-21T09:47:26;27.60;99.90
37289;DHT22;23174;49.462;11.000;2023-08-21T09:49:27;27.60;99.90
37289;DHT22;23174;49.462;11.000;2023-08-21T09:51:28;27.60;99.90
37289;DHT22;23174;49.462;11.000;2023-08-21T09:53:28;27.60;99.90
37289;DHT22;23174;49.462;11.000;2023-08-21T09:55:31;27.50;99.90
37289;DHT22;23174;49.462;11.000;2023-08-21T09:57:32;27.50;99.90
37289;DHT22;23174;49.462;11.000;2023-08-21T09:59:33;27.50;99.90
37289;DHT22;23174;49.462;11.000;2023-08-21T10:01:36;27.60;99.90
37289;DHT22;23174;49.462;11.000;2023-08-21T10:03:38;27.70;99.90
37289;DHT22;23174;49.462;11.000;2023-08-21T10:05:39;27.70;99.90
37289;DHT22;23174;49.462;11.000;2023-08-21T10:07:40;27.80;99.90
37289;DHT22;23174;49.462;11.000;2023-08-21T10:09:43;27.70;99.90
37289;DHT22;23174;49.462;11.000;2023-08-21T10:11:44;27.80;99.90
37289;DHT22;23174;49.462;11.000;2023-08-21T10:13:44;28.00;99.90
37289;DHT22;23174;49.462;11.000;2023-08-21T10:15:45;28.00;99.90
37289;DHT22;23174;49.462;11.000;2023-08-21T10:17:46;28.00;99.90
37289;DHT22;23174;49.462;11.000;2023-08-21T10:19:53;27.90;99.90
37289;DHT22;23174;49.462;11.000;2023-08-21T10:21:55;27.90;99.90
37289;DHT22;23174;49.462;11.000;2023-08-21T10:23:56;27.90;99.90
37289;DHT22;23174;49.462;11.000;2023-08-21T10:26:01;27.90;99.90
37289;DHT22;23174;49.462;11.000;2023-08-21T10:28:01;27.90;99.90
37289;DHT22;23174;49.462;11.000;2023-08-21T10:30:15;28.00;99.90
37289;DHT22;23174;49.462;11.000;2023-08-21T10:32:22;28.10;99.90
37289;DHT22;23174;49.462;11.000;2023-08-21T10:34:34;28.10;99.90
37289;DHT22;23174;49.462;11.000;2023-08-21T10:39:00;28.30;99.90
37289;DHT22;23174;49.462;11.000;2023-08-21T10:41:05;28.60;99.90
37289;DHT22;23174;49.462;11.000;2023-08-21T10:43:41;28.40;99.90
37289;DHT22;23174;49.462;11.000;2023-08-21T10:45:54;28.30;99.90
37289;DHT22;23174;49.462;11.000;2023-08-21T10:47:59;28.40;99.90
37289;DHT22;23174;49.462;11.000;2023-08-21T10:50:03;28.30;99.90
37289;DHT22;23174;49.462;11.000;2023-08-21T10:52:05;28.30;99.90
37289;DHT22;23174;49.462;11.000;2023-08-21T10:54:15;28.30;99.90
37289;DHT22;23174;49.462;11.000;2023-08-21T10:56:16;28.40;99.90
37289;DHT22;23174;49.462;11.000;2023-08-21T10:58:16;28.40;99.90
37289;DHT22;23174;49.462;11.000;2023-08-21T11:00:18;28.40;99.90
37289;DHT22;23174;49.462;11.000;2023-08-21T11:02:19;28.50;99.90
37289;DHT22;23174;49.462;11.000;2023-08-21T11:04:19;28.60;99.90
37289;DHT22;23174;49.462;11.000;2023-08-21T11:06:20;28.70;99.90
37289;DHT22;23174;49.462;11.000;2023-08-21T11:08:20;28.60;99.90
37289;DHT22;23174;49.462;11.000;2023-08-21T11:10:23;28.70;99.90
37289;DHT22;23174;49.462;11.000;2023-08-21T11:12:24;28.70;99.90
37289;DHT22;23174;49.462;11.000;2023-08-21T11:14:26;28.60;99.90
37289;DHT22;23174;49.462;11.000;2023-08-21T11:16:26;28.60;99.90
37289;DHT22;23174;49.462;11.000;2023-08-21T11:18:35;28.80;99.90
37289;DHT22;23174;49.462;11.000;2023-08-21T11:20:36;28.80;99.90
37289;DHT22;23174;49.462;11.000;2023-08-21T11:22:37;28.90;99.90
37289;DHT22;23174;49.462;11.000;2023-08-21T11:26:38;29.00;99.90
37289;DHT22;23174;49.462;11.000;2023-08-21T11:28:39;28.90;99.90
37289;DHT22;23174;49.462;11.000;2023-08-21T11:30:39;29.10;99.90
37289;DHT22;23174;49.462;11.000;2023-08-21T11:32:40;29.10;99.90
37289;DHT22;23174;49.462;11.000;2023-08-21T11:34:41;29.00;99.90
37289;DHT22;23174;49.462;11.000;2023-08-21T11:36:42;29.10;99.90
37289;DHT22;23174;49.462;11.000;2023-08-21T11:38:58;29.20;99.90
37289;DHT22;23174;49.462;11.000;2023-08-21T11:41:01;29.10;99.90
37289;DHT22;23174;49.462;11.000;2023-08-21T11:43:03;29.00;99.90
37289;DHT22;23174;49.462;11.000;2023-08-21T11:45:06;29.10;99.90
37289;DHT22;23174;49.462;11.000;2023-08-21T11:47:06;29.20;99.90
37289;DHT22;23174;49.462;11.000;2023-08-21T11:49:07;29.10;99.90
37289;DHT22;23174;49.462;11.000;2023-08-21T11:51:08;29.10;99.90
37289;DHT22;23174;49.462;11.000;2023-08-21T11:53:09;29.00;99.90
37289;DHT22;23174;49.462;11.000;2023-08-21T11:55:11;29.10;99.90
37289;DHT22;23174;49.462;11.000;2023-08-21T11:57:14;29.20;99.90
37289;DHT22;23174;49.462;11.000;2023-08-21T11:59:22;29.10;99.90
37289;DHT22;23174;49.462;11.000;2023-08-21T12:01:23;29.20;99.90
37289;DHT22;23174;49.462;11.000;2023-08-21T12:03:23;29.40;99.90
37289;DHT22;23174;49.462;11.000;2023-08-21T12:05:24;29.20;99.90
37289;DHT22;23174;49.462;11.000;2023-08-21T12:07:25;29.30;99.90
37289;DHT22;23174;49.462;11.000;2023-08-21T12:09:25;29.30;99.90
37289;DHT22;23174;49.462;11.000;2023-08-21T12:11:27;29.30;99.90
37289;DHT22;23174;49.462;11.000;2023-08-21T12:13:27;29.30;99.90
37289;DHT22;23174;49.462;11.000;2023-08-21T12:15:28;29.40;99.90
37289;DHT22;23174;49.462;11.000;2023-08-21T12:17:28;29.30;99.90
37289;DHT22;23174;49.462;11.000;2023-08-21T12:19:29;29.30;99.90
37289;DHT22;23174;49.462;11.000;2023-08-21T12:21:29;29.20;99.90
37289;DHT22;23174;49.462;11.000;2023-08-21T12:23:30;29.40;99.90
37289;DHT22;23174;49.462;11.000;2023-08-21T12:25:30;29.30;99.90
37289;DHT22;23174;49.462;11.000;2023-08-21T12:27:32;29.30;99.90
37289;DHT22;23174;49.462;11.000;2023-08-21T12:29:32;29.50;99.90
37289;DHT22;23174;49.462;11.000;2023-08-21T12:31:33;29.50;99.90
37289;DHT22;23174;49.462;11.000;2023-08-21T12:33:34;29.50;99.90
37289;DHT22;23174;49.462;11.000;2023-08-21T12:35:34;29.60;99.90
37289;DHT22;23174;49.462;11.000;2023-08-21T12:37:35;29.70;99.90
37289;DHT22;23174;49.462;11.000;2023-08-21T12:39:36;29.80;99.90
37289;DHT22;23174;49.462;11.000;2023-08-21T12:41:36;30.10;99.90